createdAt,value
2019-05-19T00:01:21.307Z,23.27
2019-05-19T00:03:51.881Z,22.70
2019-05-19T00:06:22.506Z,22.63
2019-05-19T00:08:53.031Z,21.93
2019-05-19T00:11:23.655Z,22.27
2019-05-19T00:13:55.985Z,23.67
2019-05-19T00:16:27.926Z,21.50
2019-05-19T00:18:58.630Z,22.83
2019-05-19T00:21:29.269Z,20.60
2019-05-19T00:24:00.084Z,20.73
2019-05-19T00:26:30.746Z,21.17
2019-05-19T00:29:01.375Z,20.47
2019-05-19T00:31:32.128Z,20.80
2019-05-19T00:34:03.842Z,19.27
2019-05-19T00:36:35.437Z,19.23
2019-05-19T00:39:06.860Z,19.00
2019-05-19T00:41:37.347Z,19.53
2019-05-19T00:44:07.960Z,21.17
2019-05-19T00:46:38.576Z,19.67
2019-05-19T00:49:09.316Z,20.07
2019-05-19T00:51:41.067Z,20.47
2019-05-19T00:54:11.788Z,19.47
2019-05-19T00:56:43.096Z,18.90
2019-05-19T00:59:14.315Z,20.33
2019-05-19T01:01:44.879Z,19.27
2019-05-19T01:04:15.558Z,19.97
2019-05-19T01:06:46.158Z,20.43
2019-05-19T01:09:16.692Z,19.37
2019-05-19T01:11:47.341Z,19.50
2019-05-19T01:14:17.968Z,19.23
2019-05-19T01:16:49.463Z,20.20
2019-05-19T01:19:20.010Z,19.57
2019-05-19T01:21:51.266Z,19.53
2019-05-19T01:24:21.823Z,18.67
2019-05-19T01:26:52.459Z,19.00
2019-05-19T01:29:23.085Z,19.43
2019-05-19T01:31:53.689Z,19.67
2019-05-19T01:34:24.412Z,19.60
2019-05-19T01:36:55.048Z,20.63
2019-05-19T01:39:25.649Z,20.53
2019-05-19T01:41:56.246Z,20.37
2019-05-19T01:44:26.886Z,20.50
2019-05-19T01:46:57.297Z,20.23
2019-05-19T01:49:27.796Z,21.60
2019-05-19T01:51:59.658Z,21.50
2019-05-19T01:54:30.313Z,20.70
2019-05-19T01:57:01.066Z,20.80
2019-05-19T01:59:31.975Z,20.23
2019-05-19T02:02:02.628Z,21.77
2019-05-19T02:04:33.537Z,21.70
2019-05-19T02:07:05.294Z,21.73
2019-05-19T02:09:35.938Z,22.50
2019-05-19T02:12:06.557Z,23.07
2019-05-19T02:14:37.183Z,22.00
2019-05-19T02:17:07.898Z,23.93
2019-05-19T02:19:38.587Z,22.63
2019-05-19T02:22:09.225Z,21.90
2019-05-19T02:24:39.802Z,24.13
2019-05-19T02:27:10.370Z,22.63
2019-05-19T02:29:41.012Z,23.60
2019-05-19T02:32:12.561Z,23.03
2019-05-19T02:34:43.361Z,24.13
2019-05-19T02:37:13.932Z,23.90
2019-05-19T02:39:44.553Z,23.30
2019-05-19T02:42:18.687Z,23.40
2019-05-19T02:44:50.945Z,23.47
2019-05-19T02:47:22.815Z,23.77
2019-05-19T02:49:55.070Z,24.70
2019-05-19T02:52:27.051Z,22.93
2019-05-19T02:54:59.506Z,24.03
2019-05-19T02:57:32.054Z,28.87
2019-05-19T03:00:02.968Z,25.87
2019-05-19T03:02:33.493Z,25.27
2019-05-19T03:05:04.187Z,24.70
2019-05-19T03:07:34.821Z,24.70
2019-05-19T03:10:06.514Z,25.07
2019-05-19T03:12:37.996Z,23.47
2019-05-19T03:15:08.871Z,25.87
2019-05-19T03:17:39.368Z,26.27
2019-05-19T03:20:10.229Z,23.80
2019-05-19T03:22:40.774Z,23.37
2019-05-19T03:25:12.556Z,24.30
2019-05-19T03:27:43.238Z,25.17
2019-05-19T03:30:34.758Z,24.97
2019-05-19T03:33:06.554Z,25.53
2019-05-19T03:35:37.169Z,24.33
2019-05-19T03:38:07.843Z,24.10
2019-05-19T03:40:38.631Z,24.03
2019-05-19T03:43:10.705Z,24.63
2019-05-19T03:45:41.283Z,22.67
2019-05-19T03:48:11.716Z,24.20
2019-05-19T03:50:42.302Z,22.87
2019-05-19T03:53:13.049Z,22.67
2019-05-19T03:55:43.955Z,22.30
2019-05-19T03:58:14.489Z,22.27
2019-05-19T04:00:45.111Z,22.63
2019-05-19T04:03:15.651Z,21.77
2019-05-19T04:05:46.265Z,21.03
2019-05-19T04:08:16.698Z,21.80
2019-05-19T04:10:47.278Z,21.47
2019-05-19T04:13:17.926Z,22.70
2019-05-19T04:15:48.493Z,21.57
2019-05-19T04:18:19.092Z,21.27
2019-05-19T04:20:49.784Z,22.47
2019-05-19T04:23:21.208Z,22.27
2019-05-19T04:25:52.629Z,20.90
2019-05-19T04:28:23.215Z,20.57
2019-05-19T04:30:53.820Z,21.43
2019-05-19T04:33:24.439Z,21.33
2019-05-19T04:35:57.430Z,21.90
2019-05-19T04:38:27.248Z,23.63
2019-05-19T04:40:57.846Z,23.20
2019-05-19T04:43:30.026Z,23.60
2019-05-19T04:46:00.642Z,22.10
2019-05-19T04:48:32.290Z,21.80
2019-05-19T04:51:03.045Z,21.07
2019-05-19T04:53:33.894Z,21.10
2019-05-19T04:56:04.458Z,22.30
2019-05-19T04:58:35.096Z,21.33
2019-05-19T05:01:05.805Z,21.73
2019-05-19T05:03:36.431Z,21.33
2019-05-19T05:06:07.162Z,19.23
2019-05-19T05:08:37.726Z,20.47
2019-05-19T05:11:08.420Z,20.23
2019-05-19T05:13:38.862Z,18.97
2019-05-19T05:16:09.675Z,17.80
2019-05-19T05:18:40.086Z,17.63
2019-05-19T05:21:10.737Z,17.47
2019-05-19T05:23:41.360Z,16.80
2019-05-19T05:26:11.950Z,16.80
2019-05-19T05:28:42.346Z,16.80
2019-05-19T05:31:15.517Z,16.03
2019-05-19T05:33:45.123Z,16.65
2019-05-19T05:36:15.650Z,15.63
2019-05-19T05:38:46.291Z,16.62
2019-05-19T05:41:17.096Z,16.03
2019-05-19T05:43:47.638Z,15.53
2019-05-19T05:46:18.411Z,15.93
2019-05-19T05:48:49.009Z,16.25
2019-05-19T05:51:19.904Z,14.87
2019-05-19T05:53:50.526Z,14.30
2019-05-19T05:56:21.032Z,14.35
2019-05-19T05:58:51.548Z,14.25
2019-05-19T06:01:22.258Z,14.90
2019-05-19T06:03:53.531Z,13.28
2019-05-19T06:06:24.258Z,14.15
2019-05-19T06:08:54.746Z,14.85
2019-05-19T06:11:25.159Z,13.72
2019-05-19T06:13:55.735Z,14.58
2019-05-19T06:16:26.588Z,14.10
2019-05-19T06:18:57.039Z,14.75
2019-05-19T06:21:27.820Z,13.75
2019-05-19T06:23:58.372Z,13.10
2019-05-19T06:26:29.097Z,13.78
2019-05-19T06:28:59.696Z,13.10
2019-05-19T06:31:30.237Z,13.53
2019-05-19T06:34:00.882Z,12.88
2019-05-19T06:36:32.646Z,11.93
2019-05-19T06:39:03.970Z,12.70
2019-05-19T06:41:35.149Z,12.40
2019-05-19T06:44:05.776Z,13.03
2019-05-19T06:46:37.751Z,12.20
2019-05-19T06:49:08.349Z,11.97
2019-05-19T06:51:39.195Z,11.68
2019-05-19T06:54:09.938Z,12.15
2019-05-19T06:56:40.579Z,11.53
2019-05-19T06:59:11.302Z,11.93
2019-05-19T07:01:42.259Z,12.05
2019-05-19T07:04:12.771Z,11.08
2019-05-19T07:06:43.786Z,11.38
2019-05-19T07:09:14.642Z,11.30
2019-05-19T07:11:48.045Z,11.70
2019-05-19T07:14:18.567Z,11.18
2019-05-19T07:16:49.330Z,11.78
2019-05-19T07:19:19.961Z,11.30
2019-05-19T07:21:50.591Z,11.18
2019-05-19T07:24:21.412Z,11.03
2019-05-19T07:26:52.368Z,10.38
2019-05-19T07:29:23.198Z,11.00
2019-05-19T07:31:54.129Z,10.68
2019-05-19T07:34:24.760Z,10.38
2019-05-19T07:36:55.609Z,9.85
2019-05-19T07:39:26.342Z,9.38
2019-05-19T07:41:57.126Z,9.43
2019-05-19T07:44:28.019Z,10.32
2019-05-19T07:46:58.724Z,9.95
2019-05-19T07:49:29.681Z,9.75
2019-05-19T07:52:00.315Z,10.08
2019-05-19T07:54:31.022Z,9.98
2019-05-19T07:57:01.772Z,10.35
2019-05-19T07:59:32.321Z,9.95
2019-05-19T08:02:03.575Z,9.98
2019-05-19T08:04:34.095Z,9.73
2019-05-19T08:07:05.095Z,10.28
2019-05-19T08:09:35.638Z,9.95
2019-05-19T08:12:06.762Z,9.00
2019-05-19T08:14:37.389Z,9.70
2019-05-19T08:17:08.679Z,9.08
2019-05-19T08:19:39.419Z,8.63
2019-05-19T08:22:11.031Z,9.00
2019-05-19T08:24:41.621Z,8.10
2019-05-19T08:27:12.209Z,8.68
2019-05-19T08:29:42.849Z,8.00
2019-05-19T08:32:13.898Z,8.35
2019-05-19T08:34:44.708Z,7.92
2019-05-19T08:37:15.448Z,7.62
2019-05-19T08:39:46.188Z,7.05
2019-05-19T08:42:16.925Z,7.80
2019-05-19T08:44:47.972Z,7.25
2019-05-19T08:47:19.743Z,7.28
2019-05-19T08:49:50.798Z,7.53
2019-05-19T08:52:21.492Z,7.60
2019-05-19T08:54:52.125Z,7.95
2019-05-19T08:57:22.759Z,7.17
2019-05-19T08:59:53.290Z,7.67
2019-05-19T09:02:24.723Z,7.33
2019-05-19T09:04:55.261Z,8.00
2019-05-19T09:07:25.980Z,8.33
2019-05-19T09:09:56.543Z,9.33
2019-05-19T09:12:27.477Z,9.50
2019-05-19T09:14:58.382Z,9.35
2019-05-19T09:17:29.414Z,9.68
2019-05-19T09:20:00.174Z,9.70
2019-05-19T09:22:31.222Z,8.90
2019-05-19T09:25:02.396Z,9.85
2019-05-19T09:27:33.320Z,9.13
2019-05-19T09:30:04.596Z,9.38
2019-05-19T09:32:37.369Z,8.85
2019-05-19T09:35:09.600Z,9.70
2019-05-19T09:37:41.526Z,10.25
2019-05-19T09:40:12.401Z,9.65
2019-05-19T09:42:43.140Z,9.90
2019-05-19T09:45:15.158Z,10.05
2019-05-19T09:47:45.950Z,9.53
2019-05-19T09:50:16.978Z,9.58
2019-05-19T09:52:47.590Z,9.15
2019-05-19T09:55:18.232Z,10.05
2019-05-19T09:57:49.867Z,9.58
2019-05-19T10:00:21.751Z,10.00
2019-05-19T10:02:52.634Z,9.83
2019-05-19T10:05:23.420Z,9.85
2019-05-19T10:07:54.239Z,10.55
2019-05-19T10:10:41.513Z,9.83
2019-05-19T10:13:12.319Z,9.90
2019-05-19T10:15:42.902Z,9.68
2019-05-19T10:18:13.551Z,9.33
2019-05-19T10:20:44.410Z,9.05
2019-05-19T10:23:15.015Z,8.75
2019-05-19T10:25:45.785Z,7.62
2019-05-19T10:28:16.521Z,8.00
2019-05-19T10:30:47.262Z,8.20
2019-05-19T10:33:17.981Z,7.40
2019-05-19T10:35:48.689Z,7.35
2019-05-19T10:38:19.461Z,7.67
2019-05-19T10:40:50.049Z,7.60
2019-05-19T10:43:20.781Z,7.28
2019-05-19T10:46:00.802Z,6.83
2019-05-19T10:48:31.876Z,7.12
2019-05-19T10:51:02.537Z,7.35
2019-05-19T10:53:33.371Z,7.15
2019-05-19T10:56:04.647Z,6.70
2019-05-19T10:58:35.556Z,6.87
2019-05-19T11:01:06.596Z,6.72
2019-05-19T11:03:37.298Z,6.40
2019-05-19T11:06:08.174Z,6.17
2019-05-19T11:08:38.903Z,6.22
2019-05-19T11:11:10.587Z,6.28
2019-05-19T11:13:41.381Z,7.53
2019-05-19T11:16:13.680Z,6.72
2019-05-19T11:18:44.899Z,6.17
2019-05-19T11:21:15.686Z,5.80
2019-05-19T11:23:46.524Z,6.22
2019-05-19T11:26:17.928Z,5.45
2019-05-19T11:28:48.667Z,5.67
2019-05-19T11:31:19.280Z,6.10
2019-05-19T11:33:50.998Z,5.42
2019-05-19T11:36:21.708Z,5.03
2019-05-19T11:38:52.190Z,4.42
2019-05-19T11:41:22.945Z,4.35
2019-05-19T11:43:53.686Z,5.12
2019-05-19T11:46:24.561Z,5.15
2019-05-19T11:48:56.952Z,5.03
2019-05-19T11:51:28.132Z,3.83
2019-05-19T11:53:59.738Z,4.62
2019-05-19T11:56:30.818Z,4.30
2019-05-19T11:59:01.480Z,4.95
2019-05-19T12:01:32.328Z,4.53
2019-05-19T12:04:02.875Z,3.98
2019-05-19T12:06:39.629Z,4.50
2019-05-19T12:09:07.729Z,4.70
2019-05-19T12:11:38.538Z,5.28
2019-05-19T12:14:09.044Z,5.40
2019-05-19T12:16:39.901Z,5.35
2019-05-19T12:19:10.617Z,5.40
2019-05-19T12:21:41.262Z,4.97
2019-05-19T12:24:11.845Z,5.03
2019-05-19T12:26:42.724Z,4.83
2019-05-19T12:29:13.966Z,4.83
2019-05-19T12:31:44.668Z,6.05
2019-05-19T12:34:15.328Z,5.90
2019-05-19T12:36:46.061Z,6.15
2019-05-19T12:39:16.699Z,5.85
2019-05-19T12:41:47.412Z,5.83
2019-05-19T12:44:18.060Z,4.95
2019-05-19T12:46:48.762Z,5.60
2019-05-19T12:49:19.394Z,7.17
2019-05-19T12:51:50.071Z,5.97
2019-05-19T12:54:20.786Z,6.15
2019-05-19T12:56:51.533Z,6.33
2019-05-19T12:59:23.184Z,6.12
2019-05-19T13:01:53.735Z,5.85
2019-05-19T13:04:24.373Z,5.60
2019-05-19T13:06:54.980Z,5.90
2019-05-19T13:09:25.608Z,6.25
2019-05-19T13:11:56.534Z,6.90
2019-05-19T13:14:27.271Z,6.25
2019-05-19T13:16:58.238Z,6.10
2019-05-19T13:19:28.943Z,5.78
2019-05-19T13:21:59.852Z,6.20
2019-05-19T13:24:30.644Z,6.05
2019-05-19T13:27:01.379Z,5.83
2019-05-19T13:29:32.131Z,5.60
2019-05-19T13:32:02.960Z,5.55
2019-05-19T13:34:33.871Z,4.70
2019-05-19T13:37:04.510Z,5.03
2019-05-19T13:39:35.248Z,4.80
2019-05-19T13:42:06.186Z,5.00
2019-05-19T13:44:36.657Z,5.78
2019-05-19T13:47:07.631Z,5.62
2019-05-19T13:49:39.692Z,5.78
2019-05-19T13:52:10.168Z,5.80
2019-05-19T13:54:40.800Z,5.55
2019-05-19T13:57:12.728Z,5.45
2019-05-19T13:59:45.401Z,6.50
2019-05-19T14:02:16.126Z,5.80
2019-05-19T14:04:46.700Z,5.65
2019-05-19T14:07:17.491Z,5.42
2019-05-19T14:09:48.326Z,5.62
2019-05-19T14:12:19.054Z,5.60
2019-05-19T14:14:49.755Z,5.62
2019-05-19T14:17:20.525Z,5.80
2019-05-19T14:19:51.161Z,5.30
2019-05-19T14:22:22.100Z,5.35
2019-05-19T14:24:52.744Z,4.85
2019-05-19T14:27:30.308Z,4.78
2019-05-19T14:29:55.606Z,4.35
2019-05-19T14:32:26.509Z,4.50
2019-05-19T14:34:57.185Z,4.50
2019-05-19T14:37:27.832Z,4.65
2019-05-19T14:39:59.972Z,4.37
2019-05-19T14:42:50.046Z,4.28
2019-05-19T14:45:20.888Z,4.65
2019-05-19T14:47:51.763Z,4.90
2019-05-19T14:50:24.243Z,5.10
2019-05-19T14:52:56.741Z,5.60
2019-05-19T14:55:27.467Z,5.45
2019-05-19T14:57:59.003Z,5.70
2019-05-19T15:00:29.863Z,5.45
2019-05-19T15:03:00.784Z,6.15
2019-05-19T15:05:31.357Z,5.90
2019-05-19T15:08:02.257Z,5.62
2019-05-19T15:10:33.423Z,5.67
2019-05-19T15:13:04.220Z,5.40
2019-05-19T15:15:34.819Z,5.65
2019-05-19T15:18:05.622Z,5.30
2019-05-19T15:20:37.446Z,5.00
2019-05-19T15:23:08.166Z,4.97
2019-05-19T15:25:39.017Z,4.45
2019-05-19T15:28:10.075Z,5.10
2019-05-19T15:30:40.790Z,4.58
2019-05-19T15:33:11.628Z,4.83
2019-05-19T15:35:42.168Z,5.37
2019-05-19T15:38:12.896Z,4.90
2019-05-19T15:40:43.739Z,5.05
2019-05-19T15:43:14.303Z,5.03
2019-05-19T15:45:44.912Z,4.72
2019-05-19T15:48:15.480Z,4.80
2019-05-19T15:50:46.578Z,4.50
2019-05-19T15:53:17.256Z,4.60
2019-05-19T15:55:48.958Z,3.80
2019-05-19T15:58:19.786Z,3.95
2019-05-19T16:00:50.657Z,4.42
2019-05-19T16:03:21.177Z,4.17
2019-05-19T16:05:51.782Z,4.45
2019-05-19T16:08:22.411Z,4.80
2019-05-19T16:10:53.050Z,4.60
2019-05-19T16:13:23.685Z,5.45
2019-05-19T16:15:55.395Z,5.08
2019-05-19T16:18:26.170Z,5.80
2019-05-19T16:20:57.731Z,5.35
2019-05-19T16:23:28.667Z,4.62
2019-05-19T16:25:59.946Z,4.62
2019-05-19T16:28:31.259Z,4.58
2019-05-19T16:31:02.463Z,4.00
2019-05-19T16:33:34.898Z,4.95
2019-05-19T16:36:07.846Z,4.40
2019-05-19T16:38:38.276Z,4.60
2019-05-19T16:41:09.017Z,4.72
2019-05-19T16:43:39.935Z,4.50
2019-05-19T16:46:10.587Z,4.15
2019-05-19T16:48:41.428Z,4.17
2019-05-19T16:51:13.147Z,4.20
2019-05-19T16:53:45.571Z,4.20
2019-05-19T16:56:16.202Z,4.05
2019-05-19T16:58:46.948Z,4.53
2019-05-19T17:01:20.101Z,3.77
2019-05-19T17:03:51.822Z,4.08
2019-05-19T17:06:22.910Z,4.35
2019-05-19T17:08:53.624Z,4.78
2019-05-19T17:11:24.271Z,4.28
2019-05-19T17:13:55.111Z,4.42
2019-05-19T17:16:26.702Z,4.72
2019-05-19T17:18:57.776Z,4.40
2019-05-19T17:21:28.338Z,4.90
2019-05-19T17:23:58.974Z,5.00
2019-05-19T17:26:29.809Z,4.70
2019-05-19T17:29:01.226Z,4.95
2019-05-19T17:31:32.102Z,5.60
2019-05-19T17:34:02.658Z,5.92
2019-05-19T17:36:33.463Z,5.90
2019-05-19T17:39:05.246Z,6.28
2019-05-19T17:41:36.076Z,6.25
2019-05-19T17:44:07.124Z,6.40
2019-05-19T17:46:38.355Z,7.03
2019-05-19T17:49:09.590Z,6.90
2019-05-19T17:51:40.206Z,7.33
2019-05-19T17:54:30.832Z,7.20
2019-05-19T17:57:03.204Z,7.42
2019-05-19T17:59:34.444Z,7.60
2019-05-19T18:02:05.536Z,8.23
2019-05-19T18:04:36.467Z,7.25
2019-05-19T18:07:07.377Z,8.63
2019-05-19T18:09:38.004Z,7.83
2019-05-19T18:12:08.849Z,8.70
2019-05-19T18:14:39.635Z,8.93
2019-05-19T18:17:10.397Z,9.20
2019-05-19T18:19:41.431Z,9.45
2019-05-19T18:22:12.371Z,10.08
2019-05-19T18:24:43.660Z,9.20
2019-05-19T18:27:15.111Z,9.35
2019-05-19T18:29:46.336Z,9.90
2019-05-19T18:32:17.047Z,11.33
2019-05-19T18:34:47.941Z,10.93
2019-05-19T18:37:19.158Z,11.90
2019-05-19T18:39:50.452Z,11.48
2019-05-19T18:42:22.312Z,12.13
2019-05-19T18:44:53.453Z,12.33
2019-05-19T18:47:24.147Z,12.75
2019-05-19T18:49:55.564Z,12.90
2019-05-19T18:52:26.261Z,12.35
2019-05-19T18:54:57.032Z,13.30
2019-05-19T18:57:28.481Z,12.90
2019-05-19T18:59:59.514Z,14.57
2019-05-19T19:02:30.256Z,14.47
2019-05-19T19:05:01.053Z,14.90
2019-05-19T19:07:50.854Z,14.70
2019-05-19T19:10:21.936Z,14.67
2019-05-19T19:12:52.736Z,14.17
2019-05-19T19:15:23.591Z,14.83
2019-05-19T19:17:54.397Z,15.37
2019-05-19T19:20:25.068Z,15.03
2019-05-19T19:22:55.587Z,15.73
2019-05-19T19:25:26.426Z,16.13
2019-05-19T19:27:57.563Z,17.23
2019-05-19T19:30:28.430Z,17.77
2019-05-19T19:32:59.099Z,17.00
2019-05-19T19:35:38.672Z,18.40
2019-05-19T19:38:02.234Z,17.60
2019-05-19T19:40:34.318Z,17.03
2019-05-19T19:43:07.015Z,18.37
2019-05-19T19:45:37.660Z,18.87
2019-05-19T19:48:09.533Z,19.33
2019-05-19T19:50:40.536Z,18.33
2019-05-19T19:53:12.154Z,19.77
2019-05-19T19:55:44.135Z,19.83
2019-05-19T19:58:16.580Z,19.97
2019-05-19T20:00:49.434Z,18.03
2019-05-19T20:03:20.976Z,21.23
2019-05-19T20:05:53.799Z,19.47
2019-05-19T20:08:25.590Z,20.80
2019-05-19T20:10:56.440Z,19.33
2019-05-19T20:13:27.030Z,19.30
2019-05-19T20:15:57.606Z,18.70
2019-05-19T20:18:28.446Z,19.57
2019-05-19T20:20:59.058Z,17.73
2019-05-19T20:23:29.810Z,19.13
2019-05-19T20:26:00.923Z,18.17
2019-05-19T20:28:31.976Z,20.00
2019-05-19T20:31:03.495Z,18.70
2019-05-19T20:33:34.366Z,17.13
2019-05-19T20:36:05.036Z,19.20
2019-05-19T20:38:35.831Z,19.07
2019-05-19T20:41:06.469Z,21.63
2019-05-19T20:43:37.192Z,21.97
2019-05-19T20:46:07.793Z,24.80
2019-05-19T20:48:38.660Z,23.40
2019-05-19T20:51:09.293Z,24.27
2019-05-19T20:53:39.937Z,27.77
2019-05-19T20:56:10.374Z,24.23
2019-05-19T20:58:41.239Z,22.90
2019-05-19T21:01:12.103Z,27.90
2019-05-19T21:03:42.599Z,26.83
2019-05-19T21:06:13.079Z,26.70
2019-05-19T21:08:44.203Z,26.83
2019-05-19T21:11:14.618Z,26.87
2019-05-19T21:13:45.393Z,30.70
2019-05-19T21:16:16.219Z,27.23
2019-05-19T21:18:48.459Z,30.60
2019-05-19T21:21:18.913Z,29.33
2019-05-19T21:23:49.402Z,31.50
2019-05-19T21:26:20.068Z,31.13
2019-05-19T21:28:50.823Z,30.57
2019-05-19T21:31:21.372Z,31.93
2019-05-19T21:33:51.938Z,32.80
2019-05-19T21:36:22.506Z,32.53
2019-05-19T21:38:53.238Z,30.67
2019-05-19T21:41:24.798Z,31.77
2019-05-19T21:43:55.630Z,34.07
2019-05-19T21:46:26.057Z,33.13
2019-05-19T21:48:56.518Z,32.57
2019-05-19T21:51:27.082Z,33.37
2019-05-19T21:53:57.800Z,34.50
2019-05-19T21:56:28.287Z,35.70
2019-05-19T21:58:59.931Z,32.97
2019-05-19T22:01:30.483Z,33.50
2019-05-19T22:04:01.148Z,32.33
2019-05-19T22:06:33.355Z,34.27
2019-05-19T22:09:06.035Z,33.97
2019-05-19T22:11:36.979Z,32.43
2019-05-19T22:14:07.764Z,34.40
2019-05-19T22:16:38.336Z,34.03
2019-05-19T22:19:09.178Z,32.87
2019-05-19T22:21:39.672Z,31.57
2019-05-19T22:24:10.238Z,31.77
2019-05-19T22:26:40.684Z,32.57
2019-05-19T22:29:11.447Z,32.37
2019-05-19T22:31:42.031Z,32.17
2019-05-19T22:34:12.664Z,32.23
2019-05-19T22:36:43.209Z,32.90
2019-05-19T22:39:13.868Z,31.00
2019-05-19T22:41:44.358Z,32.77
2019-05-19T22:44:26.285Z,31.50
2019-05-19T22:46:56.850Z,34.87
2019-05-19T22:49:27.579Z,32.40
2019-05-19T22:51:58.214Z,33.60
2019-05-19T22:54:28.737Z,34.13
2019-05-19T22:57:00.210Z,33.87
2019-05-19T22:59:31.783Z,35.13
2019-05-19T23:02:02.336Z,33.17
2019-05-19T23:04:33.812Z,31.87
2019-05-19T23:07:04.380Z,33.70
2019-05-19T23:09:34.828Z,32.77
2019-05-19T23:12:05.409Z,31.97
2019-05-19T23:14:36.032Z,35.23
2019-05-19T23:17:06.507Z,35.10
2019-05-19T23:19:37.035Z,35.33
2019-05-19T23:22:07.525Z,35.53
2019-05-19T23:24:38.150Z,33.20
2019-05-19T23:27:08.719Z,34.83
2019-05-19T23:29:39.358Z,34.47
2019-05-19T23:32:09.987Z,35.13
2019-05-19T23:34:40.574Z,33.10
2019-05-19T23:37:11.119Z,32.80
2019-05-19T23:39:42.066Z,36.03
2019-05-19T23:42:12.618Z,33.20
2019-05-19T23:44:43.234Z,33.77
2019-05-19T23:47:13.627Z,35.63
2019-05-19T23:49:44.221Z,34.00
2019-05-19T23:52:14.773Z,34.27
2019-05-19T23:54:45.468Z,34.53
2019-05-19T23:57:15.927Z,34.40
2019-05-19T23:59:46.896Z,33.00
